Bill Berry (bbr) — WDB8998 — position and weather

sailwx.info

Track history (hours):
 
Tides and Currents Weather Stations Pressure Air Temp Water Temp Dewpoint Dewpoint Depression Visibility Wind Speed Wind Dir Waves Ship Positions

Bill Berry (bbr)

Owner: INGRAM BARGE COMPANY, Nashville, TN. More information available from US FCC via Universal Licensing System and Coast Guard Vessel Documentation Center.

Last reported at 2015-Jul-26 13:25 UTC. Time now 2015-Aug-03 08:37 UTC.
Position N 38°45' W 085°04'.

Length 41 m; draft 3.5 m.

Type: Towing. MMSI: 366967630.

Date/timePositionNaut miles runAvg speedWind from/ knotsBaromVisibWave heightAir tempDewpointWater temp
2015-Jul-26 13:25N 38°45' W 085°04'2 2.4
2015-Jul-26 12:32N 38°45' W 085°01'0 0.0
2015-Jul-26 11:31N 38°45' W 085°01'0 0.0
2015-Jul-26 10:08N 38°45' W 085°01'0 0.0
2015-Jul-26 09:33N 38°45' W 085°01'10 2.5
2015-Jul-26 05:33N 38°49' W 084°50'13 4.0
2015-Jul-26 02:13N 39°02' W 084°53'4 5.0
2015-Jul-26 01:27N 39°06' W 084°50'5 5.5
2015-Jul-26 00:33N 39°09' W 084°45'5 5.4
2015-Jul-25 23:33N 39°06' W 084°40'5 4.9
2015-Jul-25 22:34N 39°06' W 084°33'0 0.4
2015-Jul-25 21:33N 39°06' W 084°33'0 0.0
2015-Jul-25 20:33N 39°06' W 084°33'0 0.0
2015-Jul-25 19:32N 39°06' W 084°33'0 0.0
2015-Jul-25 18:32N 39°06' W 084°33'0 0.2
2015-Jul-25 17:33N 39°06' W 084°33'5 4.7
2015-Jul-25 16:33N 39°06' W 084°27'4 4.2
2015-Jul-25 15:33N 39°03' W 084°24'6 6.0
2015-Jul-25 14:33N 38°59' W 084°18'6 6.5
2015-Jul-25 13:33N 38°53' W 084°14'1 0.6
2015-Jul-25 12:31N 38°53' W 084°14'0 0.0
2015-Jul-25 11:32N 38°53' W 084°14'0 0.1
2015-Jul-25 10:33N 38°53' W 084°14'0 0.1
2015-Jul-25 09:32N 38°53' W 084°14'0 0.4
2015-Jul-25 08:32N 38°52' W 084°14'0 0.3
2015-Jul-25 07:32N 38°53' W 084°14'0 0.3
2015-Jul-25 06:33N 38°53' W 084°14'1 1.3
2015-Jul-25 05:33N 38°52' W 084°14'5 4.7
2015-Jul-25 04:33N 38°48' W 084°10'  
2015-Jul-22 12:32N 38°39' W 083°45'3 3.4
2015-Jul-22 11:33N 38°42' W 083°47'4 3.2
2015-Jul-22 10:22N 38°44' W 083°51'3 3.4
2015-Jul-22 09:32N 38°46' W 083°54'4 3.6
2015-Jul-22 08:33N 38°47' W 083°58'4 3.8
2015-Jul-22 07:33N 38°46' W 084°03'4 3.7
2015-Jul-22 06:33N 38°47' W 084°08'2 2.4
2015-Jul-22 05:32N 38°48' W 084°11'3 2.7
2015-Jul-22 04:33N 38°49' W 084°14'4 3.6
2015-Jul-22 03:33N 38°53' W 084°14'4 3.6
2015-Jul-22 02:33N 38°56' W 084°16'4 3.6
2015-Jul-22 01:33N 38°59' W 084°18'4 3.6
2015-Jul-22 00:32N 39°02' W 084°21'4 3.8
2015-Jul-21 23:33N 39°03' W 084°25'5 4.6
2015-Jul-21 22:33N 39°07' W 084°28'4 3.9
2015-Jul-21 21:33N 39°06' W 084°32'3 3.3
2015-Jul-21 20:33N 39°04' W 084°36'4 3.5
2015-Jul-21 19:33N 39°06' W 084°40'3 3.4
2015-Jul-21 18:33N 39°08' W 084°43'4 1.8
2015-Jul-21 16:30N 39°07' W 084°48'0 0.4
2015-Jul-21 15:29N 39°07' W 084°48'0 0.4
2015-Jul-21 14:32N 39°07' W 084°48'0 0.1
2015-Jul-21 13:28N 39°07' W 084°48'0 0.4
2015-Jul-21 12:33N 39°07' W 084°48'0 0.0
2015-Jul-21 11:33N 39°07' W 084°48'0 0.2
2015-Jul-21 10:32N 39°07' W 084°48'6 5.9
2015-Jul-21 09:33N 39°06' W 084°41'6 5.7
2015-Jul-21 08:32N 39°06' W 084°33'0 0.1
2015-Jul-21 07:33N 39°06' W 084°33'0 0.1
2015-Jul-21 06:32N 39°06' W 084°33'0 0.1
2015-Jul-21 05:33N 39°06' W 084°33'3 2.9
2015-Jul-21 04:33N 39°04' W 084°36'4 3.8
2015-Jul-21 03:33N 39°06' W 084°41'3 3.1
2015-Jul-21 02:33N 39°08' W 084°43'3 3.2
2015-Jul-21 01:33N 39°07' W 084°47'6 3.2
2015-Jul-20 23:33N 39°03' W 084°54'  
Track history (hours):
 
Tides and Currents Weather Stations Pressure Air Temp Water Temp Dewpoint Dewpoint Depression Visibility Wind Speed Wind Dir Waves Ship Positions

Bill Berry (bbr)

Owner: INGRAM BARGE COMPANY, Nashville, TN. More information available from US FCC via Universal Licensing System and Coast Guard Vessel Documentation Center.

Last reported at 2015-Jul-26 13:25 UTC. Time now 2015-Aug-03 08:37 UTC.
Position N 38°45' W 085°04'.

Length 41 m; draft 3.5 m.

Type: Towing. MMSI: 366967630.

Date/timePositionNaut miles runAvg speedWind from/ knotsBaromVisibWave heightAir tempDewpointWater temp
2015-Jul-26 13:25N 38°45' W 085°04'2 2.4
2015-Jul-26 12:32N 38°45' W 085°01'0 0.0
2015-Jul-26 11:31N 38°45' W 085°01'0 0.0
2015-Jul-26 10:08N 38°45' W 085°01'0 0.0
2015-Jul-26 09:33N 38°45' W 085°01'10 2.5
2015-Jul-26 05:33N 38°49' W 084°50'13 4.0
2015-Jul-26 02:13N 39°02' W 084°53'4 5.0
2015-Jul-26 01:27N 39°06' W 084°50'5 5.5
2015-Jul-26 00:33N 39°09' W 084°45'5 5.4
2015-Jul-25 23:33N 39°06' W 084°40'5 4.9
2015-Jul-25 22:34N 39°06' W 084°33'0 0.4
2015-Jul-25 21:33N 39°06' W 084°33'0 0.0
2015-Jul-25 20:33N 39°06' W 084°33'0 0.0
2015-Jul-25 19:32N 39°06' W 084°33'0 0.0
2015-Jul-25 18:32N 39°06' W 084°33'0 0.2
2015-Jul-25 17:33N 39°06' W 084°33'5 4.7
2015-Jul-25 16:33N 39°06' W 084°27'4 4.2
2015-Jul-25 15:33N 39°03' W 084°24'6 6.0
2015-Jul-25 14:33N 38°59' W 084°18'6 6.5
2015-Jul-25 13:33N 38°53' W 084°14'1 0.6
2015-Jul-25 12:31N 38°53' W 084°14'0 0.0
2015-Jul-25 11:32N 38°53' W 084°14'0 0.1
2015-Jul-25 10:33N 38°53' W 084°14'0 0.1
2015-Jul-25 09:32N 38°53' W 084°14'0 0.4
2015-Jul-25 08:32N 38°52' W 084°14'0 0.3
2015-Jul-25 07:32N 38°53' W 084°14'0 0.3
2015-Jul-25 06:33N 38°53' W 084°14'1 1.3
2015-Jul-25 05:33N 38°52' W 084°14'5 4.7
2015-Jul-25 04:33N 38°48' W 084°10'  
2015-Jul-22 12:32N 38°39' W 083°45'3 3.4
2015-Jul-22 11:33N 38°42' W 083°47'4 3.2
2015-Jul-22 10:22N 38°44' W 083°51'3 3.4
2015-Jul-22 09:32N 38°46' W 083°54'4 3.6
2015-Jul-22 08:33N 38°47' W 083°58'4 3.8
2015-Jul-22 07:33N 38°46' W 084°03'4 3.7
2015-Jul-22 06:33N 38°47' W 084°08'2 2.4
2015-Jul-22 05:32N 38°48' W 084°11'3 2.7
2015-Jul-22 04:33N 38°49' W 084°14'4 3.6
2015-Jul-22 03:33N 38°53' W 084°14'4 3.6
2015-Jul-22 02:33N 38°56' W 084°16'4 3.6
2015-Jul-22 01:33N 38°59' W 084°18'4 3.6
2015-Jul-22 00:32N 39°02' W 084°21'4 3.8
2015-Jul-21 23:33N 39°03' W 084°25'5 4.6
2015-Jul-21 22:33N 39°07' W 084°28'4 3.9
2015-Jul-21 21:33N 39°06' W 084°32'3 3.3
2015-Jul-21 20:33N 39°04' W 084°36'4 3.5
2015-Jul-21 19:33N 39°06' W 084°40'3 3.4
2015-Jul-21 18:33N 39°08' W 084°43'4 1.8
2015-Jul-21 16:30N 39°07' W 084°48'0 0.4
2015-Jul-21 15:29N 39°07' W 084°48'0 0.4
2015-Jul-21 14:32N 39°07' W 084°48'0 0.1
2015-Jul-21 13:28N 39°07' W 084°48'0 0.4
2015-Jul-21 12:33N 39°07' W 084°48'0 0.0
2015-Jul-21 11:33N 39°07' W 084°48'0 0.2
2015-Jul-21 10:32N 39°07' W 084°48'6 5.9
2015-Jul-21 09:33N 39°06' W 084°41'6 5.7
2015-Jul-21 08:32N 39°06' W 084°33'0 0.1
2015-Jul-21 07:33N 39°06' W 084°33'0 0.1
2015-Jul-21 06:32N 39°06' W 084°33'0 0.1
2015-Jul-21 05:33N 39°06' W 084°33'3 2.9
2015-Jul-21 04:33N 39°04' W 084°36'4 3.8
2015-Jul-21 03:33N 39°06' W 084°41'3 3.1
2015-Jul-21 02:33N 39°08' W 084°43'3 3.2
2015-Jul-21 01:33N 39°07' W 084°47'6 3.2
2015-Jul-20 23:33N 39°03' W 084°54'  

Dump ship's entire track history